Palisades, WA (98845)

6:00 PM PDT on August 29, 2014 (GMT -0700)
Winchester | Change Station
CLOSE
Current Station
Personal Weather Station
Location: Quincy, WA
Elevation: 1350 ft
Nearby Weather Stations

Elev 1350 ft 47.26 °N, 119.72 °W | Updated 7 seconds ago

Mostly Cloudy
Mostly Cloudy
71.7 °F
Feels Like 77 °F
N
7.0
Wind Variable Wind from West
Gusts 11.0 mph

Today
High -- | Low -- °F
--% Chance of Precip.
Yesterday
High -- | Low -- °F
Precip. -- in
6:13 AM 7:44 PM
Waxing Crescent, 18% visible
Pressure 29.79 in
Visibility 10.0 miles
Clouds Clear
Heat Index 77 °F
Dew Point 47 °F
Humidity 41%
Rainfall -999.00 in
Snow Depth Not available.
UV 1 out of 12
Pollen 4.70 out of 12
Air Quality Not available.
Flu Activity Not available.
METAR KEPH 300053Z AUTO 31012KT 10SM CLR 25/05 A2981 RMK AO2 SLP086 T02500050

More Conditions Fewer Conditions

Pressure 29.79 in
Visibility 10.0 miles
Clouds Clear
Heat Index 77 °F
Dew Point 47 °F
Humidity 41%
Rainfall -999.00 in
Snow Depth Not available.
UV 1 out of 12
Pollen 4.70 out of 12
Air Quality Not available.
Flu Activity Not available.
METAR KEPH 300053Z AUTO 31012KT 10SM CLR 25/05 A2981 RMK AO2 SLP086 T02500050

More Conditions Fewer Conditions

10-Day Weather Forecast

Almanac

Astronomy

Aug. 29, 2014 Rise Set
Actual Time 6:13 AM PDT 7:44 PM PDT
Civil Twilight 5:41 AM PDT 8:16 PM PDT
Nautical Twilight 5:02 AM PDT 8:55 PM PDT
Astronomical Twilight 4:20 AM PDT 9:37 PM PDT
Moon 10:27 AM PDT (8/29) 9:25 PM PDT (8/29)
Length of Visible Light 14h 35m
Length of Day
13h 30m
Tomorrow will be 3m 15s shorter.
Waxing Crescent, 18% of the Moon is Illuminated
Today
Waxing Crescent
Sep 2
First Quarter
Sep 8
Full
Sep 15
Last Quarter
Sep 24
New

Today's Extremes

State Highs State Lows

Community

WunderPhotos

Upload Photos

1,748,394 photos uploaded!

Nearby

Snow Depth

Station Depth Elevation
Trough 0 in 5300 ft
Upper Wheeler 0 in 4400 ft
Grouse Camp 0 in 5380 ft
Sasse Ridge 0 in 4200 ft
Moses Mountain 0 in 5300 ft

Earthquake Activity

City Distance Mag. Time & Date
No recent earthquake activity has been reported nearby.
Minimum magnitude displayed is 2.5.

Coastal Water Temperatures

Place Temperature
No Stations Reporting

Nearby Weather Stations